sensor_id;sensor_type;location;lat;lon;timestamp;pressure;altitude;pressure_sealevel;temperature;humidity
3096;BME280;1558;42.700;23.360;2022-07-05T00:01:46;95417.44;;;22.21;51.88
3096;BME280;1558;42.700;23.360;2022-07-05T00:04:14;95411.19;;;22.13;52.19
3096;BME280;1558;42.700;23.360;2022-07-05T00:06:43;95409.69;;;22.05;52.45
3096;BME280;1558;42.700;23.360;2022-07-05T00:09:26;95406.22;;;21.94;52.75
3096;BME280;1558;42.700;23.360;2022-07-05T00:11:54;95417.59;;;21.96;52.91
3096;BME280;1558;42.700;23.360;2022-07-05T00:14:22;95419.59;;;21.89;53.06
3096;BME280;1558;42.700;23.360;2022-07-05T00:16:50;95411.75;;;21.87;53.03
3096;BME280;1558;42.700;23.360;2022-07-05T00:19:19;95404.31;;;21.84;53.11
3096;BME280;1558;42.700;23.360;2022-07-05T00:21:46;95408.25;;;21.76;53.63
3096;BME280;1558;42.700;23.360;2022-07-05T00:24:14;95407.50;;;21.72;53.73
3096;BME280;1558;42.700;23.360;2022-07-05T00:26:44;95414.56;;;21.66;53.80
3096;BME280;1558;42.700;23.360;2022-07-05T00:29:12;95390.34;;;21.47;53.98
3096;BME280;1558;42.700;23.360;2022-07-05T00:31:40;95388.78;;;21.46;54.45
3096;BME280;1558;42.700;23.360;2022-07-05T00:34:08;95394.31;;;21.39;54.68
3096;BME280;1558;42.700;23.360;2022-07-05T00:36:36;95406.47;;;21.41;54.96
3096;BME280;1558;42.700;23.360;2022-07-05T00:39:04;95402.16;;;21.37;55.05
3096;BME280;1558;42.700;23.360;2022-07-05T00:41:32;95404.94;;;21.30;55.38
3096;BME280;1558;42.700;23.360;2022-07-05T00:44:03;95399.06;;;21.21;55.88
3096;BME280;1558;42.700;23.360;2022-07-05T00:46:32;95396.75;;;21.09;55.76
3096;BME280;1558;42.700;23.360;2022-07-05T00:49:01;95338.03;;;20.71;56.00
3096;BME280;1558;42.700;23.360;2022-07-05T00:51:31;95401.47;;;21.08;56.27
3096;BME280;1558;42.700;23.360;2022-07-05T00:54:00;95402.25;;;21.05;56.21
3096;BME280;1558;42.700;23.360;2022-07-05T00:56:28;95389.69;;;20.97;56.54
3096;BME280;1558;42.700;23.360;2022-07-05T00:58:56;95399.88;;;20.89;56.95
3096;BME280;1558;42.700;23.360;2022-07-05T01:01:26;95388.94;;;20.79;57.13
3096;BME280;1558;42.700;23.360;2022-07-05T01:03:54;95333.38;;;20.43;57.25
3096;BME280;1558;42.700;23.360;2022-07-05T01:06:24;95392.09;;;20.77;57.34
3096;BME280;1558;42.700;23.360;2022-07-05T01:08:52;95392.88;;;20.74;57.73
3096;BME280;1558;42.700;23.360;2022-07-05T01:11:20;95392.50;;;20.72;57.88
3096;BME280;1558;42.700;23.360;2022-07-05T01:13:48;95406.97;;;20.69;58.02
3096;BME280;1558;42.700;23.360;2022-07-05T01:16:16;95388.97;;;20.54;58.10
3096;BME280;1558;42.700;23.360;2022-07-05T01:18:45;95408.56;;;20.63;58.16
3096;BME280;1558;42.700;23.360;2022-07-05T01:21:17;95414.03;;;20.63;58.21
3096;BME280;1558;42.700;23.360;2022-07-05T01:23:48;95407.75;;;20.59;58.32
3096;BME280;1558;42.700;23.360;2022-07-05T01:26:17;95407.00;;;20.55;58.41
3096;BME280;1558;42.700;23.360;2022-07-05T01:28:46;95359.97;;;20.21;58.50
3096;BME280;1558;42.700;23.360;2022-07-05T01:31:14;95413.25;;;20.45;58.76
3096;BME280;1558;42.700;23.360;2022-07-05T01:33:42;95414.03;;;20.32;58.99
3096;BME280;1558;42.700;23.360;2022-07-05T01:36:11;95387.78;;;20.13;59.18
3096;BME280;1558;42.700;23.360;2022-07-05T01:38:39;95418.75;;;20.28;59.35
3096;BME280;1558;42.700;23.360;2022-07-05T01:41:09;95410.91;;;20.30;59.44
3096;BME280;1558;42.700;23.360;2022-07-05T01:43:37;95414.81;;;20.32;59.47
3096;BME280;1558;42.700;23.360;2022-07-05T01:46:05;95409.34;;;20.32;59.52
3096;BME280;1558;42.700;23.360;2022-07-05T01:48:37;95412.84;;;20.40;58.57
3096;BME280;1558;42.700;23.360;2022-07-05T01:51:10;95411.69;;;20.48;58.36
3096;BME280;1558;42.700;23.360;2022-07-05T01:53:43;95410.13;;;20.50;58.26
3096;BME280;1558;42.700;23.360;2022-07-05T01:56:13;95416.41;;;20.51;58.19
3096;BME280;1558;42.700;23.360;2022-07-05T01:58:41;95410.13;;;20.54;58.01
3096;BME280;1558;42.700;23.360;2022-07-05T02:01:09;95410.91;;;20.54;58.28
3096;BME280;1558;42.700;23.360;2022-07-05T02:03:39;95414.03;;;20.53;58.24
3096;BME280;1558;42.700;23.360;2022-07-05T02:06:23;95406.59;;;20.46;58.65
3096;BME280;1558;42.700;23.360;2022-07-05T02:08:50;95413.25;;;20.42;58.38
3096;BME280;1558;42.700;23.360;2022-07-05T02:11:20;95408.97;;;20.37;58.67
3096;BME280;1558;42.700;23.360;2022-07-05T02:13:48;95403.88;;;20.32;58.89
3096;BME280;1558;42.700;23.360;2022-07-05T02:16:16;95392.06;;;20.21;58.89
3096;BME280;1558;42.700;23.360;2022-07-05T02:18:44;95405.41;;;20.26;58.89
3096;BME280;1558;42.700;23.360;2022-07-05T02:21:12;95406.59;;;20.25;59.02
3096;BME280;1558;42.700;23.360;2022-07-05T02:23:40;95413.25;;;20.28;58.91
3096;BME280;1558;42.700;23.360;2022-07-05T02:26:08;95408.53;;;20.28;58.56
3096;BME280;1558;42.700;23.360;2022-07-05T02:28:37;95409.34;;;20.36;58.51
3096;BME280;1558;42.700;23.360;2022-07-05T02:31:05;95415.19;;;20.38;58.25
3096;BME280;1558;42.700;23.360;2022-07-05T02:33:33;95412.09;;;20.39;58.42
3096;BME280;1558;42.700;23.360;2022-07-05T02:36:06;95412.88;;;20.36;58.46
3096;BME280;1558;42.700;23.360;2022-07-05T02:38:34;95416.38;;;20.30;58.43
3096;BME280;1558;42.700;23.360;2022-07-05T02:41:04;95367.41;;;19.89;58.73
3096;BME280;1558;42.700;23.360;2022-07-05T02:43:33;95409.31;;;20.11;59.00
3096;BME280;1558;42.700;23.360;2022-07-05T02:46:03;95417.91;;;20.13;59.44
3096;BME280;1558;42.700;23.360;2022-07-05T02:48:32;95420.22;;;20.00;60.11
3096;BME280;1558;42.700;23.360;2022-07-05T02:51:00;95428.41;;;19.97;60.44
3096;BME280;1558;42.700;23.360;2022-07-05T02:53:29;95423.34;;;19.92;60.73
3096;BME280;1558;42.700;23.360;2022-07-05T02:55:57;95429.56;;;19.85;61.11
3096;BME280;1558;42.700;23.360;2022-07-05T02:58:25;95434.25;;;19.74;61.42
3096;BME280;1558;42.700;23.360;2022-07-05T03:00:53;95437.34;;;19.66;62.02
3096;BME280;1558;42.700;23.360;2022-07-05T03:03:23;95434.59;;;19.62;62.17
3096;BME280;1558;42.700;23.360;2022-07-05T03:05:51;95433.41;;;19.59;62.22
3096;BME280;1558;42.700;23.360;2022-07-05T03:08:18;95432.63;;;19.63;62.20
3096;BME280;1558;42.700;23.360;2022-07-05T03:10:47;95432.25;;;19.64;62.84
3096;BME280;1558;42.700;23.360;2022-07-05T03:13:15;95401.28;;;19.42;62.02
3096;BME280;1558;42.700;23.360;2022-07-05T03:15:43;95431.84;;;19.58;62.64
3096;BME280;1558;42.700;23.360;2022-07-05T03:18:10;95433.44;;;19.74;62.18
3096;BME280;1558;42.700;23.360;2022-07-05T03:20:40;95410.78;;;19.80;62.07
3096;BME280;1558;42.700;23.360;2022-07-05T03:23:08;95417.88;;;19.92;61.95
3096;BME280;1558;42.700;23.360;2022-07-05T03:25:36;95428.88;;;20.13;62.47
3096;BME280;1558;42.700;23.360;2022-07-05T03:28:04;95428.88;;;20.20;62.89
3096;BME280;1558;42.700;23.360;2022-07-05T03:30:32;95425.78;;;20.25;62.17
3096;BME280;1558;42.700;23.360;2022-07-05T03:33:00;95433.63;;;20.51;62.92
3096;BME280;1558;42.700;23.360;2022-07-05T03:35:28;95432.44;;;20.45;61.52
3096;BME280;1558;42.700;23.360;2022-07-05T03:37:57;95400.69;;;20.23;61.96
3096;BME280;1558;42.700;23.360;2022-07-05T03:40:25;95432.06;;;20.61;62.96
3096;BME280;1558;42.700;23.360;2022-07-05T03:42:53;95429.28;;;20.85;63.18
3096;BME280;1558;42.700;23.360;2022-07-05T03:45:21;95393.25;;;20.76;62.56
3096;BME280;1558;42.700;23.360;2022-07-05T03:47:49;95410.88;;;20.82;62.38
3096;BME280;1558;42.700;23.360;2022-07-05T03:50:18;95408.56;;;20.77;62.99
3096;BME280;1558;42.700;23.360;2022-07-05T03:52:45;95421.47;;;20.84;63.04
3096;BME280;1558;42.700;23.360;2022-07-05T03:55:15;95417.50;;;20.92;63.80
3096;BME280;1558;42.700;23.360;2022-07-05T03:57:43;95411.63;;;21.15;63.79
3096;BME280;1558;42.700;23.360;2022-07-05T04:00:11;95409.28;;;21.10;63.44
3096;BME280;1558;42.700;23.360;2022-07-05T04:02:39;95408.88;;;21.15;63.71
3096;BME280;1558;42.700;23.360;2022-07-05T04:05:07;95415.56;;;21.07;62.78
3096;BME280;1558;42.700;23.360;2022-07-05T04:07:47;95418.28;;;21.00;63.14
3096;BME280;1558;42.700;23.360;2022-07-05T04:10:16;95384.25;;;20.72;63.29
3096;BME280;1558;42.700;23.360;2022-07-05T04:12:45;95423.78;;;20.96;63.49
3096;BME280;1558;42.700;23.360;2022-07-05T04:15:13;95413.22;;;20.98;63.61
3096;BME280;1558;42.700;23.360;2022-07-05T04:17:48;95420.25;;;21.03;63.30
3096;BME280;1558;42.700;23.360;2022-07-05T04:20:17;95416.75;;;21.06;63.57
3096;BME280;1558;42.700;23.360;2022-07-05T04:22:45;95411.25;;;20.99;63.50
3096;BME280;1558;42.700;23.360;2022-07-05T04:25:13;95428.88;;;21.12;63.26
3096;BME280;1558;42.700;23.360;2022-07-05T04:27:46;95374.47;;;20.68;63.09
3096;BME280;1558;42.700;23.360;2022-07-05T04:30:15;95419.09;;;21.04;63.46
3096;BME280;1558;42.700;23.360;2022-07-05T04:32:44;95424.97;;;21.06;63.71
3096;BME280;1558;42.700;23.360;2022-07-05T04:35:12;95407.69;;;21.02;63.75
3096;BME280;1558;42.700;23.360;2022-07-05T04:37:40;95415.16;;;21.01;64.19
3096;BME280;1558;42.700;23.360;2022-07-05T04:40:11;95425.72;;;21.17;63.96
3096;BME280;1558;42.700;23.360;2022-07-05T04:42:39;95425.72;;;21.24;63.87
3096;BME280;1558;42.700;23.360;2022-07-05T04:45:09;95423.34;;;21.29;64.42
3096;BME280;1558;42.700;23.360;2022-07-05T04:47:38;95427.28;;;21.32;63.81
3096;BME280;1558;42.700;23.360;2022-07-05T04:50:06;95423.34;;;21.29;63.85
3096;BME280;1558;42.700;23.360;2022-07-05T04:52:34;95414.69;;;21.38;64.43
3096;BME280;1558;42.700;23.360;2022-07-05T04:55:03;95431.16;;;21.41;64.69
3096;BME280;1558;42.700;23.360;2022-07-05T04:57:36;95436.56;;;21.59;64.74
3096;BME280;1558;42.700;23.360;2022-07-05T05:00:06;95397.03;;;21.42;64.66
3096;BME280;1558;42.700;23.360;2022-07-05T05:02:35;95424.75;;;21.73;64.29
3096;BME280;1558;42.700;23.360;2022-07-05T05:05:04;95423.94;;;21.79;63.71
3096;BME280;1558;42.700;23.360;2022-07-05T05:07:32;95427.94;;;21.61;64.13
3096;BME280;1558;42.700;23.360;2022-07-05T05:10:04;95435.72;;;21.76;64.31
3096;BME280;1558;42.700;23.360;2022-07-05T05:12:32;95429.44;;;21.86;63.69
3096;BME280;1558;42.700;23.360;2022-07-05T05:15:00;95428.97;;;21.95;63.93
3096;BME280;1558;42.700;23.360;2022-07-05T05:17:35;95432.34;;;22.23;63.00
3096;BME280;1558;42.700;23.360;2022-07-05T05:20:06;95436.50;;;22.46;62.06
3096;BME280;1558;42.700;23.360;2022-07-05T05:22:34;95438.38;;;22.59;61.21
3096;BME280;1558;42.700;23.360;2022-07-05T05:25:03;95410.31;;;22.82;59.68
3096;BME280;1558;42.700;23.360;2022-07-05T05:27:31;95438.47;;;23.37;59.18
3096;BME280;1558;42.700;23.360;2022-07-05T05:29:59;95434.94;;;23.71;58.22
3096;BME280;1558;42.700;23.360;2022-07-05T05:32:27;95429.25;;;23.85;58.26
3096;BME280;1558;42.700;23.360;2022-07-05T05:34:56;95438.72;;;23.84;57.71
3096;BME280;1558;42.700;23.360;2022-07-05T05:37:24;95431.50;;;24.23;57.72
3096;BME280;1558;42.700;23.360;2022-07-05T05:39:52;95432.66;;;24.26;55.80
3096;BME280;1558;42.700;23.360;2022-07-05T05:42:20;95414.72;;;24.41;56.08
3096;BME280;1558;42.700;23.360;2022-07-05T05:44:48;95431.56;;;25.20;55.20
3096;BME280;1558;42.700;23.360;2022-07-05T05:47:16;95425.88;;;25.70;52.72
3096;BME280;1558;42.700;23.360;2022-07-05T05:49:44;95425.16;;;26.05;52.05
3096;BME280;1558;42.700;23.360;2022-07-05T05:52:14;95433.44;;;26.05;52.68
3096;BME280;1558;42.700;23.360;2022-07-05T05:54:42;95357.69;;;25.63;51.36
3096;BME280;1558;42.700;23.360;2022-07-05T05:57:10;95436.41;;;26.50;50.15
3096;BME280;1558;42.700;23.360;2022-07-05T05:59:38;95436.25;;;26.73;49.74
3096;BME280;1558;42.700;23.360;2022-07-05T06:02:06;95442.72;;;27.15;49.99
3096;BME280;1558;42.700;23.360;2022-07-05T06:04:34;95443.78;;;27.66;48.59
3096;BME280;1558;42.700;23.360;2022-07-05T06:07:03;95440.59;;;27.38;48.72
3096;BME280;1558;42.700;23.360;2022-07-05T06:09:32;95436.78;;;26.84;48.75
3096;BME280;1558;42.700;23.360;2022-07-05T06:12:00;95425.97;;;26.57;48.81
3096;BME280;1558;42.700;23.360;2022-07-05T06:14:28;95450.09;;;27.37;48.73
3096;BME280;1558;42.700;23.360;2022-07-05T06:16:56;95441.25;;;27.71;47.65
3096;BME280;1558;42.700;23.360;2022-07-05T06:19:24;95441.97;;;28.29;47.75
3096;BME280;1558;42.700;23.360;2022-07-05T06:21:52;95447.41;;;28.58;46.59
3096;BME280;1558;42.700;23.360;2022-07-05T06:24:25;95447.22;;;28.77;45.78
3096;BME280;1558;42.700;23.360;2022-07-05T06:26:55;95436.72;;;29.19;45.01
3096;BME280;1558;42.700;23.360;2022-07-05T06:29:23;95433.94;;;29.32;43.83
3096;BME280;1558;42.700;23.360;2022-07-05T06:31:51;95430.56;;;29.37;43.46
3096;BME280;1558;42.700;23.360;2022-07-05T06:34:19;95443.41;;;29.22;43.78
3096;BME280;1558;42.700;23.360;2022-07-05T06:36:47;95441.75;;;29.12;44.25
3096;BME280;1558;42.700;23.360;2022-07-05T06:39:14;95442.50;;;29.25;43.37
3096;BME280;1558;42.700;23.360;2022-07-05T06:41:43;95438.09;;;29.49;43.97
3096;BME280;1558;42.700;23.360;2022-07-05T06:44:12;95439.13;;;29.77;43.38
3096;BME280;1558;42.700;23.360;2022-07-05T06:47:00;95434.78;;;29.97;43.11
3096;BME280;1558;42.700;23.360;2022-07-05T06:49:28;95435.53;;;30.41;41.05
3096;BME280;1558;42.700;23.360;2022-07-05T06:51:56;95432.88;;;30.68;40.60
3096;BME280;1558;42.700;23.360;2022-07-05T06:54:24;95429.03;;;30.84;40.20
3096;BME280;1558;42.700;23.360;2022-07-05T06:57:11;95428.06;;;31.18;39.25
3096;BME280;1558;42.700;23.360;2022-07-05T06:59:58;95424.50;;;31.26;38.83
3096;BME280;1558;42.700;23.360;2022-07-05T07:02:27;95383.75;;;30.62;38.66
3096;BME280;1558;42.700;23.360;2022-07-05T07:04:56;95418.91;;;30.59;39.48
3096;BME280;1558;42.700;23.360;2022-07-05T07:07:41;95412.31;;;30.35;39.78
3096;BME280;1558;42.700;23.360;2022-07-05T07:10:27;95419.88;;;30.35;38.77
3096;BME280;1558;42.700;23.360;2022-07-05T07:12:56;95420.59;;;30.57;38.20
3096;BME280;1558;42.700;23.360;2022-07-05T07:15:25;95426.22;;;31.24;37.33
3096;BME280;1558;42.700;23.360;2022-07-05T07:17:54;95415.72;;;31.37;36.15
3096;BME280;1558;42.700;23.360;2022-07-05T07:20:22;95420.22;;;32.16;35.96
3096;BME280;1558;42.700;23.360;2022-07-05T07:22:50;95420.53;;;31.55;36.01
3096;BME280;1558;42.700;23.360;2022-07-05T07:25:19;95429.53;;;31.95;34.95
3096;BME280;1558;42.700;23.360;2022-07-05T07:27:51;95423.00;;;32.07;35.28
3096;BME280;1558;42.700;23.360;2022-07-05T07:30:22;95432.28;;;31.31;36.47
3096;BME280;1558;42.700;23.360;2022-07-05T07:32:51;95430.66;;;31.03;37.04
3096;BME280;1558;42.700;23.360;2022-07-05T07:35:20;95423.63;;;31.48;36.49
3096;BME280;1558;42.700;23.360;2022-07-05T07:37:48;95418.22;;;31.98;35.13
3096;BME280;1558;42.700;23.360;2022-07-05T07:40:16;95423.63;;;32.11;34.66
3096;BME280;1558;42.700;23.360;2022-07-05T07:42:44;95422.66;;;32.23;34.98
3096;BME280;1558;42.700;23.360;2022-07-05T07:45:12;95371.28;;;32.30;35.33
3096;BME280;1558;42.700;23.360;2022-07-05T07:47:40;95415.66;;;32.78;35.61
3096;BME280;1558;42.700;23.360;2022-07-05T07:50:10;95408.28;;;33.47;34.89
3096;BME280;1558;42.700;23.360;2022-07-05T07:52:38;95421.56;;;33.37;33.89
3096;BME280;1558;42.700;23.360;2022-07-05T07:55:07;95401.47;;;32.91;33.63
3096;BME280;1558;42.700;23.360;2022-07-05T07:57:35;95414.53;;;32.43;34.49
3096;BME280;1558;42.700;23.360;2022-07-05T08:00:04;95418.25;;;32.58;34.69
3096;BME280;1558;42.700;23.360;2022-07-05T08:02:33;95417.03;;;33.16;34.67
3096;BME280;1558;42.700;23.360;2022-07-05T08:05:01;95407.88;;;33.77;32.85
3096;BME280;1558;42.700;23.360;2022-07-05T08:07:32;95414.81;;;33.43;33.60
3096;BME280;1558;42.700;23.360;2022-07-05T08:10:00;95415.31;;;33.66;33.03
3096;BME280;1558;42.700;23.360;2022-07-05T08:12:28;95413.81;;;33.32;33.42
3096;BME280;1558;42.700;23.360;2022-07-05T08:14:56;95420.88;;;32.95;33.68
3096;BME280;1558;42.700;23.360;2022-07-05T08:17:24;95420.88;;;32.86;33.83
3096;BME280;1558;42.700;23.360;2022-07-05T08:19:52;95409.53;;;33.22;33.13
3096;BME280;1558;42.700;23.360;2022-07-05T08:22:38;95407.09;;;32.82;33.98
3096;BME280;1558;42.700;23.360;2022-07-05T08:25:07;95412.44;;;33.04;33.51
3096;BME280;1558;42.700;23.360;2022-07-05T08:27:35;95398.31;;;33.69;33.36
3096;BME280;1558;42.700;23.360;2022-07-05T08:30:04;95401.22;;;33.75;33.75
3096;BME280;1558;42.700;23.360;2022-07-05T08:32:32;95406.88;;;34.19;33.03
3096;BME280;1558;42.700;23.360;2022-07-05T08:35:00;95402.09;;;33.95;32.96
3096;BME280;1558;42.700;23.360;2022-07-05T08:37:28;95391.06;;;34.16;32.86
3096;BME280;1558;42.700;23.360;2022-07-05T08:39:57;95367.75;;;33.42;31.83
3096;BME280;1558;42.700;23.360;2022-07-05T08:42:26;95379.94;;;32.73;33.84
3096;BME280;1558;42.700;23.360;2022-07-05T08:44:55;95383.13;;;32.90;33.83
3096;BME280;1558;42.700;23.360;2022-07-05T08:47:24;95384.16;;;33.49;32.88
3096;BME280;1558;42.700;23.360;2022-07-05T08:49:55;95384.06;;;34.26;32.66
3096;BME280;1558;42.700;23.360;2022-07-05T08:52:26;95380.75;;;34.71;31.52
3096;BME280;1558;42.700;23.360;2022-07-05T08:54:54;95380.69;;;34.22;31.33
3096;BME280;1558;42.700;23.360;2022-07-05T08:57:24;95376.13;;;33.95;31.96
3096;BME280;1558;42.700;23.360;2022-07-05T08:59:52;95381.47;;;34.37;32.89
3096;BME280;1558;42.700;23.360;2022-07-05T09:02:20;95375.84;;;35.01;31.52
3096;BME280;1558;42.700;23.360;2022-07-05T09:04:49;95334.78;;;35.18;31.51
3096;BME280;1558;42.700;23.360;2022-07-05T09:07:20;95368.94;;;35.36;30.63
3096;BME280;1558;42.700;23.360;2022-07-05T09:09:49;95369.34;;;35.09;30.86
3096;BME280;1558;42.700;23.360;2022-07-05T09:12:18;95320.97;;;35.00;32.05
3096;BME280;1558;42.700;23.360;2022-07-05T09:14:52;95359.53;;;35.60;31.66
3096;BME280;1558;42.700;23.360;2022-07-05T09:17:21;95345.50;;;35.40;31.44
3096;BME280;1558;42.700;23.360;2022-07-05T09:20:05;95342.81;;;35.96;31.48
3096;BME280;1558;42.700;23.360;2022-07-05T09:22:44;95348.88;;;36.15;30.21
3096;BME280;1558;42.700;23.360;2022-07-05T09:25:14;95349.97;;;36.23;30.38
3096;BME280;1558;42.700;23.360;2022-07-05T09:28:02;95342.56;;;36.26;30.33
3096;BME280;1558;42.700;23.360;2022-07-05T09:30:34;95337.13;;;36.11;30.33
3096;BME280;1558;42.700;23.360;2022-07-05T09:33:05;95336.19;;;36.25;29.94
3096;BME280;1558;42.700;23.360;2022-07-05T09:35:35;95343.13;;;35.53;30.03
3096;BME280;1558;42.700;23.360;2022-07-05T09:38:03;95331.84;;;34.72;30.80
3096;BME280;1558;42.700;23.360;2022-07-05T09:40:32;95334.78;;;34.63;32.20
3096;BME280;1558;42.700;23.360;2022-07-05T09:43:13;95328.88;;;35.82;30.75
3096;BME280;1558;42.700;23.360;2022-07-05T09:45:53;95332.25;;;36.43;30.27
3096;BME280;1558;42.700;23.360;2022-07-05T09:48:21;95329.34;;;36.00;29.52
3096;BME280;1558;42.700;23.360;2022-07-05T09:51:04;95329.56;;;36.28;30.46
3096;BME280;1558;42.700;23.360;2022-07-05T09:53:54;95297.13;;;36.58;29.41
3096;BME280;1558;42.700;23.360;2022-07-05T09:56:27;95321.44;;;37.04;29.59
3096;BME280;1558;42.700;23.360;2022-07-05T09:59:11;95322.22;;;37.10;28.93
3096;BME280;1558;42.700;23.360;2022-07-05T10:01:41;95296.69;;;37.24;28.63
3096;BME280;1558;42.700;23.360;2022-07-05T10:04:10;95303.66;;;37.40;28.96
3096;BME280;1558;42.700;23.360;2022-07-05T10:06:38;95241.50;;;36.90;29.26
3096;BME280;1558;42.700;23.360;2022-07-05T10:09:07;95307.59;;;37.00;29.45
3096;BME280;1558;42.700;23.360;2022-07-05T10:11:39;95295.69;;;36.06;30.56
3096;BME280;1558;42.700;23.360;2022-07-05T10:14:11;95259.13;;;35.75;31.25
3096;BME280;1558;42.700;23.360;2022-07-05T10:16:46;95303.53;;;36.33;30.15
3096;BME280;1558;42.700;23.360;2022-07-05T10:19:17;95280.03;;;37.21;29.57
3096;BME280;1558;42.700;23.360;2022-07-05T10:21:47;95300.19;;;36.60;30.17
3096;BME280;1558;42.700;23.360;2022-07-05T10:24:35;95292.69;;;35.89;31.57
3096;BME280;1558;42.700;23.360;2022-07-05T10:27:07;95289.81;;;35.32;32.18
3096;BME280;1558;42.700;23.360;2022-07-05T10:29:39;95271.78;;;35.65;31.73
3096;BME280;1558;42.700;23.360;2022-07-05T10:32:09;95280.41;;;34.75;32.33
3096;BME280;1558;42.700;23.360;2022-07-05T10:34:37;95281.34;;;35.53;32.98
3096;BME280;1558;42.700;23.360;2022-07-05T10:37:25;95263.81;;;35.58;31.65
3096;BME280;1558;42.700;23.360;2022-07-05T10:39:55;95271.00;;;35.64;32.52
3096;BME280;1558;42.700;23.360;2022-07-05T10:42:26;95268.78;;;35.02;32.99
3096;BME280;1558;42.700;23.360;2022-07-05T10:44:54;95270.56;;;34.65;33.03
3096;BME280;1558;42.700;23.360;2022-07-05T10:47:24;95261.81;;;35.64;33.51
3096;BME280;1558;42.700;23.360;2022-07-05T10:50:02;95254.88;;;36.53;32.26
3096;BME280;1558;42.700;23.360;2022-07-05T10:52:31;95258.66;;;36.87;31.06
3096;BME280;1558;42.700;23.360;2022-07-05T10:55:21;95265.56;;;36.12;31.23
3096;BME280;1558;42.700;23.360;2022-07-05T10:58:18;95259.50;;;36.19;31.19
3096;BME280;1558;42.700;23.360;2022-07-05T11:00:47;95257.16;;;35.35;32.23
3096;BME280;1558;42.700;23.360;2022-07-05T11:03:33;95254.41;;;35.41;32.23
3096;BME280;1558;42.700;23.360;2022-07-05T11:06:03;95244.72;;;35.42;32.95
3096;BME280;1558;42.700;23.360;2022-07-05T11:11:39;95212.84;;;35.19;32.73
3096;BME280;1558;42.700;23.360;2022-07-05T11:14:33;95180.63;;;35.34;32.42
3096;BME280;1558;42.700;23.360;2022-07-05T11:17:18;95241.78;;;36.08;32.14
3096;BME280;1558;42.700;23.360;2022-07-05T11:20:30;95233.91;;;35.55;32.34
3096;BME280;1558;42.700;23.360;2022-07-05T11:23:09;95224.69;;;35.54;31.27
3096;BME280;1558;42.700;23.360;2022-07-05T11:25:40;95241.16;;;35.41;32.57
3096;BME280;1558;42.700;23.360;2022-07-05T11:28:19;95236.31;;;35.16;32.89
3096;BME280;1558;42.700;23.360;2022-07-05T11:30:53;95230.47;;;35.71;32.06
3096;BME280;1558;42.700;23.360;2022-07-05T11:33:35;95219.22;;;35.19;32.69
3096;BME280;1558;42.700;23.360;2022-07-05T11:36:07;95215.09;;;35.41;33.10
3096;BME280;1558;42.700;23.360;2022-07-05T11:39:07;95214.84;;;35.38;32.91
3096;BME280;1558;42.700;23.360;2022-07-05T11:41:39;95216.72;;;34.81;34.96
3096;BME280;1558;42.700;23.360;2022-07-05T11:44:10;95216.88;;;34.92;34.28
3096;BME280;1558;42.700;23.360;2022-07-05T11:46:38;95214.81;;;35.59;33.88
3096;BME280;1558;42.700;23.360;2022-07-05T11:49:20;95212.53;;;36.31;32.53
3096;BME280;1558;42.700;23.360;2022-07-05T11:51:56;95206.34;;;36.21;32.07
3096;BME280;1558;42.700;23.360;2022-07-05T11:54:25;95182.91;;;35.62;32.22
3096;BME280;1558;42.700;23.360;2022-07-05T11:56:54;95184.47;;;34.71;33.93
3096;BME280;1558;42.700;23.360;2022-07-05T11:59:23;95194.56;;;34.83;34.44
3096;BME280;1558;42.700;23.360;2022-07-05T12:01:52;95180.22;;;34.55;35.43
3096;BME280;1558;42.700;23.360;2022-07-05T12:04:21;95192.28;;;34.61;34.85
3096;BME280;1558;42.700;23.360;2022-07-05T12:06:50;95193.81;;;34.62;34.72
3096;BME280;1558;42.700;23.360;2022-07-05T12:09:24;95187.47;;;34.88;34.21
3096;BME280;1558;42.700;23.360;2022-07-05T12:11:53;95188.97;;;35.29;33.96
3096;BME280;1558;42.700;23.360;2022-07-05T12:14:47;95167.81;;;34.82;34.03
3096;BME280;1558;42.700;23.360;2022-07-05T12:17:18;95182.72;;;34.33;34.11
3096;BME280;1558;42.700;23.360;2022-07-05T12:19:52;95167.91;;;34.13;34.59
3096;BME280;1558;42.700;23.360;2022-07-05T12:22:29;95177.06;;;34.28;34.39
3096;BME280;1558;42.700;23.360;2022-07-05T12:24:59;95166.13;;;34.70;34.69
3096;BME280;1558;42.700;23.360;2022-07-05T12:27:28;95163.50;;;34.61;34.60
3096;BME280;1558;42.700;23.360;2022-07-05T12:29:57;95149.72;;;34.43;35.03
3096;BME280;1558;42.700;23.360;2022-07-05T12:32:26;95167.53;;;34.40;36.56
3096;BME280;1558;42.700;23.360;2022-07-05T12:34:55;95155.31;;;34.23;35.81
3096;BME280;1558;42.700;23.360;2022-07-05T12:37:31;95163.72;;;34.43;34.54
3096;BME280;1558;42.700;23.360;2022-07-05T12:40:06;95159.13;;;34.80;34.94
3096;BME280;1558;42.700;23.360;2022-07-05T12:42:37;95162.16;;;34.56;35.43
3096;BME280;1558;42.700;23.360;2022-07-05T12:45:12;95135.53;;;33.77;35.53
3096;BME280;1558;42.700;23.360;2022-07-05T12:47:50;95158.41;;;33.90;35.90
3096;BME280;1558;42.700;23.360;2022-07-05T12:50:21;95157.19;;;33.62;36.29
3096;BME280;1558;42.700;23.360;2022-07-05T12:53:02;95138.50;;;33.53;36.68
3096;BME280;1558;42.700;23.360;2022-07-05T12:55:50;95148.44;;;33.54;36.41
3096;BME280;1558;42.700;23.360;2022-07-05T12:58:46;95146.03;;;33.18;36.99
3096;BME280;1558;42.700;23.360;2022-07-05T13:01:22;95130.16;;;33.00;37.91
3096;BME280;1558;42.700;23.360;2022-07-05T13:04:02;95127.28;;;33.09;36.92
3096;BME280;1558;42.700;23.360;2022-07-05T13:06:41;95135.56;;;33.62;36.79
3096;BME280;1558;42.700;23.360;2022-07-05T13:09:10;95120.56;;;34.15;35.10
3096;BME280;1558;42.700;23.360;2022-07-05T13:11:39;95125.16;;;34.78;35.03
3096;BME280;1558;42.700;23.360;2022-07-05T13:14:07;95128.75;;;35.56;33.50
3096;BME280;1558;42.700;23.360;2022-07-05T13:16:36;95121.28;;;35.21;33.77
3096;BME280;1558;42.700;23.360;2022-07-05T13:19:09;95109.16;;;35.35;33.12
3096;BME280;1558;42.700;23.360;2022-07-05T13:21:37;95112.00;;;35.67;32.68
3096;BME280;1558;42.700;23.360;2022-07-05T13:24:06;95114.44;;;35.90;33.13
3096;BME280;1558;42.700;23.360;2022-07-05T13:26:34;95113.13;;;36.23;32.10
3096;BME280;1558;42.700;23.360;2022-07-05T13:29:03;95114.34;;;36.16;32.75
3096;BME280;1558;42.700;23.360;2022-07-05T13:31:31;95071.25;;;35.14;33.34
3096;BME280;1558;42.700;23.360;2022-07-05T13:34:00;95106.06;;;35.02;34.02